sensor_id;sensor_type;location;lat;lon;timestamp;temperature;humidity
19665;DHT22;9980;51.020;7.772;2024-03-08T00:00:11;3.30;99.90
19665;DHT22;9980;51.020;7.772;2024-03-08T00:02:41;3.20;99.90
19665;DHT22;9980;51.020;7.772;2024-03-08T00:05:09;3.20;99.90
19665;DHT22;9980;51.020;7.772;2024-03-08T00:07:36;3.20;99.90
19665;DHT22;9980;51.020;7.772;2024-03-08T00:10:08;3.20;99.90
19665;DHT22;9980;51.020;7.772;2024-03-08T00:12:42;3.20;99.90
19665;DHT22;9980;51.020;7.772;2024-03-08T00:15:15;3.10;99.90
19665;DHT22;9980;51.020;7.772;2024-03-08T00:17:45;3.10;99.90
19665;DHT22;9980;51.020;7.772;2024-03-08T00:20:13;3.10;99.90
19665;DHT22;9980;51.020;7.772;2024-03-08T00:22:41;3.10;99.90
19665;DHT22;9980;51.020;7.772;2024-03-08T00:25:09;3.00;99.90
19665;DHT22;9980;51.020;7.772;2024-03-08T00:27:37;3.00;99.90
19665;DHT22;9980;51.020;7.772;2024-03-08T00:30:05;3.00;99.90
19665;DHT22;9980;51.020;7.772;2024-03-08T00:32:33;3.00;99.90
19665;DHT22;9980;51.020;7.772;2024-03-08T00:35:01;2.90;99.90
19665;DHT22;9980;51.020;7.772;2024-03-08T00:37:28;2.90;99.90
19665;DHT22;9980;51.020;7.772;2024-03-08T00:39:55;2.90;99.90
19665;DHT22;9980;51.020;7.772;2024-03-08T00:42:21;2.90;99.90
19665;DHT22;9980;51.020;7.772;2024-03-08T00:44:49;2.90;99.90
19665;DHT22;9980;51.020;7.772;2024-03-08T00:47:18;2.80;99.90
19665;DHT22;9980;51.020;7.772;2024-03-08T00:49:45;2.80;99.90
19665;DHT22;9980;51.020;7.772;2024-03-08T00:52:13;2.80;99.90
19665;DHT22;9980;51.020;7.772;2024-03-08T00:54:39;2.80;99.90
19665;DHT22;9980;51.020;7.772;2024-03-08T00:57:09;2.70;99.90
19665;DHT22;9980;51.020;7.772;2024-03-08T00:59:40;2.70;99.90
19665;DHT22;9980;51.020;7.772;2024-03-08T01:02:07;2.70;99.90
19665;DHT22;9980;51.020;7.772;2024-03-08T01:04:37;2.70;99.90
19665;DHT22;9980;51.020;7.772;2024-03-08T01:07:04;2.70;99.90
19665;DHT22;9980;51.020;7.772;2024-03-08T01:09:31;2.70;99.90
19665;DHT22;9980;51.020;7.772;2024-03-08T01:11:58;2.60;99.90
19665;DHT22;9980;51.020;7.772;2024-03-08T01:14:25;2.60;99.90
19665;DHT22;9980;51.020;7.772;2024-03-08T01:16:53;2.60;99.90
19665;DHT22;9980;51.020;7.772;2024-03-08T01:19:21;2.50;99.90
19665;DHT22;9980;51.020;7.772;2024-03-08T01:21:48;2.50;99.90
19665;DHT22;9980;51.020;7.772;2024-03-08T01:24:15;2.50;99.90
19665;DHT22;9980;51.020;7.772;2024-03-08T01:26:42;2.50;99.90
19665;DHT22;9980;51.020;7.772;2024-03-08T01:29:09;2.50;99.90
19665;DHT22;9980;51.020;7.772;2024-03-08T01:31:36;2.40;99.90
19665;DHT22;9980;51.020;7.772;2024-03-08T01:34:03;2.40;99.90
19665;DHT22;9980;51.020;7.772;2024-03-08T01:36:31;2.40;99.90
19665;DHT22;9980;51.020;7.772;2024-03-08T01:38:58;2.40;99.90
19665;DHT22;9980;51.020;7.772;2024-03-08T01:41:25;2.40;99.90
19665;DHT22;9980;51.020;7.772;2024-03-08T01:43:52;2.30;99.90
19665;DHT22;9980;51.020;7.772;2024-03-08T01:46:21;2.30;99.90
19665;DHT22;9980;51.020;7.772;2024-03-08T01:48:49;2.30;99.90
19665;DHT22;9980;51.020;7.772;2024-03-08T01:51:20;2.30;99.90
19665;DHT22;9980;51.020;7.772;2024-03-08T01:53:47;2.30;99.90
19665;DHT22;9980;51.020;7.772;2024-03-08T01:56:15;2.20;99.90
19665;DHT22;9980;51.020;7.772;2024-03-08T01:58:43;2.20;99.90
19665;DHT22;9980;51.020;7.772;2024-03-08T02:01:14;2.20;99.90
19665;DHT22;9980;51.020;7.772;2024-03-08T02:03:42;2.20;99.90
19665;DHT22;9980;51.020;7.772;2024-03-08T02:06:12;2.20;99.90
19665;DHT22;9980;51.020;7.772;2024-03-08T02:08:45;2.10;99.90
19665;DHT22;9980;51.020;7.772;2024-03-08T02:11:14;2.10;99.90
19665;DHT22;9980;51.020;7.772;2024-03-08T02:13:42;2.10;99.90
19665;DHT22;9980;51.020;7.772;2024-03-08T02:16:09;2.10;99.90
19665;DHT22;9980;51.020;7.772;2024-03-08T02:18:36;2.10;99.90
19665;DHT22;9980;51.020;7.772;2024-03-08T02:21:06;2.00;99.90
19665;DHT22;9980;51.020;7.772;2024-03-08T02:23:36;2.00;99.90
19665;DHT22;9980;51.020;7.772;2024-03-08T02:26:04;2.00;99.90
19665;DHT22;9980;51.020;7.772;2024-03-08T02:28:32;2.00;99.90
19665;DHT22;9980;51.020;7.772;2024-03-08T02:31:00;2.00;99.90
19665;DHT22;9980;51.020;7.772;2024-03-08T02:33:28;2.00;99.90
19665;DHT22;9980;51.020;7.772;2024-03-08T02:35:55;2.00;99.90
19665;DHT22;9980;51.020;7.772;2024-03-08T02:38:23;1.90;99.90
19665;DHT22;9980;51.020;7.772;2024-03-08T02:40:53;1.90;99.90
19665;DHT22;9980;51.020;7.772;2024-03-08T02:43:22;1.90;99.90
19665;DHT22;9980;51.020;7.772;2024-03-08T02:45:51;1.90;99.90
19665;DHT22;9980;51.020;7.772;2024-03-08T02:48:21;1.90;99.90
19665;DHT22;9980;51.020;7.772;2024-03-08T02:50:48;1.90;99.90
19665;DHT22;9980;51.020;7.772;2024-03-08T02:53:17;1.90;99.90
19665;DHT22;9980;51.020;7.772;2024-03-08T02:55:45;1.90;99.90
19665;DHT22;9980;51.020;7.772;2024-03-08T02:58:13;1.80;99.90
19665;DHT22;9980;51.020;7.772;2024-03-08T03:00:41;1.80;99.90
19665;DHT22;9980;51.020;7.772;2024-03-08T03:03:08;1.80;99.90
19665;DHT22;9980;51.020;7.772;2024-03-08T03:05:36;1.80;99.90
19665;DHT22;9980;51.020;7.772;2024-03-08T03:08:03;1.80;99.90
19665;DHT22;9980;51.020;7.772;2024-03-08T03:10:36;1.80;99.90
19665;DHT22;9980;51.020;7.772;2024-03-08T03:13:03;1.80;99.90
19665;DHT22;9980;51.020;7.772;2024-03-08T03:15:31;1.80;99.90
19665;DHT22;9980;51.020;7.772;2024-03-08T03:18:00;1.70;99.90
19665;DHT22;9980;51.020;7.772;2024-03-08T03:20:27;1.70;99.90
19665;DHT22;9980;51.020;7.772;2024-03-08T03:22:59;1.70;99.90
19665;DHT22;9980;51.020;7.772;2024-03-08T03:25:29;1.70;99.90
19665;DHT22;9980;51.020;7.772;2024-03-08T03:28:01;1.70;99.90
19665;DHT22;9980;51.020;7.772;2024-03-08T03:30:28;1.70;99.90
19665;DHT22;9980;51.020;7.772;2024-03-08T03:33:00;1.70;99.90
19665;DHT22;9980;51.020;7.772;2024-03-08T03:35:29;1.70;99.90
19665;DHT22;9980;51.020;7.772;2024-03-08T03:37:56;1.70;99.90
19665;DHT22;9980;51.020;7.772;2024-03-08T03:40:39;1.70;99.90
19665;DHT22;9980;51.020;7.772;2024-03-08T03:43:11;1.70;99.90
19665;DHT22;9980;51.020;7.772;2024-03-08T03:45:39;1.70;99.90
19665;DHT22;9980;51.020;7.772;2024-03-08T03:48:07;1.70;99.90
19665;DHT22;9980;51.020;7.772;2024-03-08T03:50:38;1.70;99.90
19665;DHT22;9980;51.020;7.772;2024-03-08T03:53:07;1.60;99.90
19665;DHT22;9980;51.020;7.772;2024-03-08T03:55:35;1.60;99.90
19665;DHT22;9980;51.020;7.772;2024-03-08T03:58:07;1.60;99.90
19665;DHT22;9980;51.020;7.772;2024-03-08T04:00:34;1.60;99.90
19665;DHT22;9980;51.020;7.772;2024-03-08T04:03:01;1.60;99.90
19665;DHT22;9980;51.020;7.772;2024-03-08T04:05:28;1.60;99.90
19665;DHT22;9980;51.020;7.772;2024-03-08T04:07:55;1.60;99.90
19665;DHT22;9980;51.020;7.772;2024-03-08T04:10:23;1.60;99.90
19665;DHT22;9980;51.020;7.772;2024-03-08T04:12:50;1.60;99.90
19665;DHT22;9980;51.020;7.772;2024-03-08T04:15:17;1.60;99.90
19665;DHT22;9980;51.020;7.772;2024-03-08T04:17:44;1.50;99.90
19665;DHT22;9980;51.020;7.772;2024-03-08T04:20:12;1.50;99.90
19665;DHT22;9980;51.020;7.772;2024-03-08T04:22:41;1.50;99.90
19665;DHT22;9980;51.020;7.772;2024-03-08T04:25:08;1.50;99.90
19665;DHT22;9980;51.020;7.772;2024-03-08T04:27:36;1.50;99.90
19665;DHT22;9980;51.020;7.772;2024-03-08T04:30:03;1.50;99.90
19665;DHT22;9980;51.020;7.772;2024-03-08T04:32:32;1.50;99.90
19665;DHT22;9980;51.020;7.772;2024-03-08T04:35:00;1.40;99.90
19665;DHT22;9980;51.020;7.772;2024-03-08T04:37:28;1.40;99.90
19665;DHT22;9980;51.020;7.772;2024-03-08T04:39:58;1.40;99.90
19665;DHT22;9980;51.020;7.772;2024-03-08T04:42:27;1.40;99.90
19665;DHT22;9980;51.020;7.772;2024-03-08T04:44:56;1.40;99.90
19665;DHT22;9980;51.020;7.772;2024-03-08T04:47:23;1.40;99.90
19665;DHT22;9980;51.020;7.772;2024-03-08T04:49:50;1.40;99.90
19665;DHT22;9980;51.020;7.772;2024-03-08T04:52:17;1.30;99.90
19665;DHT22;9980;51.020;7.772;2024-03-08T04:54:44;1.30;99.90
19665;DHT22;9980;51.020;7.772;2024-03-08T04:57:11;1.30;99.90
19665;DHT22;9980;51.020;7.772;2024-03-08T04:59:38;1.30;99.90
19665;DHT22;9980;51.020;7.772;2024-03-08T05:02:05;1.30;99.90
19665;DHT22;9980;51.020;7.772;2024-03-08T05:04:33;1.20;99.90
19665;DHT22;9980;51.020;7.772;2024-03-08T05:07:00;1.20;99.90
19665;DHT22;9980;51.020;7.772;2024-03-08T05:09:28;1.20;99.90
19665;DHT22;9980;51.020;7.772;2024-03-08T05:11:55;1.20;99.90
19665;DHT22;9980;51.020;7.772;2024-03-08T05:14:25;1.20;99.90
19665;DHT22;9980;51.020;7.772;2024-03-08T05:16:52;1.10;99.90
19665;DHT22;9980;51.020;7.772;2024-03-08T05:19:20;1.10;99.90
19665;DHT22;9980;51.020;7.772;2024-03-08T05:21:48;1.10;99.90
19665;DHT22;9980;51.020;7.772;2024-03-08T05:24:17;1.10;99.90
19665;DHT22;9980;51.020;7.772;2024-03-08T05:26:46;1.10;99.90
19665;DHT22;9980;51.020;7.772;2024-03-08T05:29:13;1.10;99.90
19665;DHT22;9980;51.020;7.772;2024-03-08T05:31:48;1.00;99.90
19665;DHT22;9980;51.020;7.772;2024-03-08T05:34:17;1.00;99.90
19665;DHT22;9980;51.020;7.772;2024-03-08T05:36:45;1.00;99.90
19665;DHT22;9980;51.020;7.772;2024-03-08T05:39:13;0.90;99.90
19665;DHT22;9980;51.020;7.772;2024-03-08T05:41:42;1.00;99.90
19665;DHT22;9980;51.020;7.772;2024-03-08T05:44:09;0.90;99.90
19665;DHT22;9980;51.020;7.772;2024-03-08T05:46:37;0.90;99.90
19665;DHT22;9980;51.020;7.772;2024-03-08T05:49:05;0.90;99.90
19665;DHT22;9980;51.020;7.772;2024-03-08T05:51:33;0.90;99.90
19665;DHT22;9980;51.020;7.772;2024-03-08T05:54:08;0.90;99.90
19665;DHT22;9980;51.020;7.772;2024-03-08T05:56:38;0.80;99.90
19665;DHT22;9980;51.020;7.772;2024-03-08T05:59:07;0.80;99.90
19665;DHT22;9980;51.020;7.772;2024-03-08T06:01:34;0.80;99.90
19665;DHT22;9980;51.020;7.772;2024-03-08T06:04:03;0.80;99.90
19665;DHT22;9980;51.020;7.772;2024-03-08T06:06:31;0.80;99.90
19665;DHT22;9980;51.020;7.772;2024-03-08T06:08:58;0.80;99.90
19665;DHT22;9980;51.020;7.772;2024-03-08T06:11:26;0.80;99.90
19665;DHT22;9980;51.020;7.772;2024-03-08T06:13:57;0.70;99.90
19665;DHT22;9980;51.020;7.772;2024-03-08T06:16:27;0.70;99.90
19665;DHT22;9980;51.020;7.772;2024-03-08T06:18:56;0.70;99.90
19665;DHT22;9980;51.020;7.772;2024-03-08T06:21:27;0.70;99.90
19665;DHT22;9980;51.020;7.772;2024-03-08T06:23:54;0.70;99.90
19665;DHT22;9980;51.020;7.772;2024-03-08T06:26:21;0.70;99.90
19665;DHT22;9980;51.020;7.772;2024-03-08T06:28:48;0.70;99.90
19665;DHT22;9980;51.020;7.772;2024-03-08T06:31:15;0.70;99.90
19665;DHT22;9980;51.020;7.772;2024-03-08T06:33:43;0.70;99.90
19665;DHT22;9980;51.020;7.772;2024-03-08T06:36:10;0.70;99.90
19665;DHT22;9980;51.020;7.772;2024-03-08T06:38:38;0.70;99.90
19665;DHT22;9980;51.020;7.772;2024-03-08T06:41:09;0.70;99.90
19665;DHT22;9980;51.020;7.772;2024-03-08T06:43:46;0.80;99.90
19665;DHT22;9980;51.020;7.772;2024-03-08T06:46:15;0.80;99.90
19665;DHT22;9980;51.020;7.772;2024-03-08T06:48:42;0.80;99.90
19665;DHT22;9980;51.020;7.772;2024-03-08T06:51:09;0.80;99.90
19665;DHT22;9980;51.020;7.772;2024-03-08T06:53:37;0.80;99.90
19665;DHT22;9980;51.020;7.772;2024-03-08T06:56:05;0.90;99.90
19665;DHT22;9980;51.020;7.772;2024-03-08T06:58:33;0.90;99.90
19665;DHT22;9980;51.020;7.772;2024-03-08T07:01:00;0.90;99.90
19665;DHT22;9980;51.020;7.772;2024-03-08T07:03:30;0.90;99.90
19665;DHT22;9980;51.020;7.772;2024-03-08T07:05:59;1.00;99.90
19665;DHT22;9980;51.020;7.772;2024-03-08T07:08:26;1.00;99.90
19665;DHT22;9980;51.020;7.772;2024-03-08T07:10:54;1.10;99.90
19665;DHT22;9980;51.020;7.772;2024-03-08T07:13:21;1.10;99.90
19665;DHT22;9980;51.020;7.772;2024-03-08T07:15:48;1.20;99.90
19665;DHT22;9980;51.020;7.772;2024-03-08T07:18:15;1.20;99.90
19665;DHT22;9980;51.020;7.772;2024-03-08T07:20:42;1.30;99.90
19665;DHT22;9980;51.020;7.772;2024-03-08T07:23:10;1.40;99.90
19665;DHT22;9980;51.020;7.772;2024-03-08T07:25:37;1.40;99.90
19665;DHT22;9980;51.020;7.772;2024-03-08T07:28:06;1.50;99.90
19665;DHT22;9980;51.020;7.772;2024-03-08T07:30:38;1.60;99.90
19665;DHT22;9980;51.020;7.772;2024-03-08T07:33:11;1.70;99.90
19665;DHT22;9980;51.020;7.772;2024-03-08T07:35:40;1.80;99.90
19665;DHT22;9980;51.020;7.772;2024-03-08T07:38:08;1.80;99.90
19665;DHT22;9980;51.020;7.772;2024-03-08T07:40:37;2.00;99.90
19665;DHT22;9980;51.020;7.772;2024-03-08T07:43:08;2.10;99.90
19665;DHT22;9980;51.020;7.772;2024-03-08T07:45:35;2.20;99.90
19665;DHT22;9980;51.020;7.772;2024-03-08T07:48:03;2.40;99.90
19665;DHT22;9980;51.020;7.772;2024-03-08T07:50:31;2.50;99.90
19665;DHT22;9980;51.020;7.772;2024-03-08T07:52:59;2.60;99.90
19665;DHT22;9980;51.020;7.772;2024-03-08T07:55:28;2.70;99.90
19665;DHT22;9980;51.020;7.772;2024-03-08T07:57:55;2.90;99.90
19665;DHT22;9980;51.020;7.772;2024-03-08T08:00:22;3.00;99.90
19665;DHT22;9980;51.020;7.772;2024-03-08T08:02:50;3.20;99.90
19665;DHT22;9980;51.020;7.772;2024-03-08T08:05:17;3.30;99.90
19665;DHT22;9980;51.020;7.772;2024-03-08T08:07:45;3.50;99.90
19665;DHT22;9980;51.020;7.772;2024-03-08T08:10:16;3.60;99.90
19665;DHT22;9980;51.020;7.772;2024-03-08T08:12:48;3.80;99.90
19665;DHT22;9980;51.020;7.772;2024-03-08T08:15:15;3.90;99.90
19665;DHT22;9980;51.020;7.772;2024-03-08T08:17:42;4.10;99.90
19665;DHT22;9980;51.020;7.772;2024-03-08T08:20:14;4.20;99.90
19665;DHT22;9980;51.020;7.772;2024-03-08T08:22:42;4.30;99.90
19665;DHT22;9980;51.020;7.772;2024-03-08T08:25:12;4.50;99.90
19665;DHT22;9980;51.020;7.772;2024-03-08T08:27:40;4.60;99.90
19665;DHT22;9980;51.020;7.772;2024-03-08T08:30:09;4.70;99.90
19665;DHT22;9980;51.020;7.772;2024-03-08T08:32:38;4.90;99.90
19665;DHT22;9980;51.020;7.772;2024-03-08T08:35:13;5.00;99.90
19665;DHT22;9980;51.020;7.772;2024-03-08T08:37:41;5.10;99.90
19665;DHT22;9980;51.020;7.772;2024-03-08T08:40:08;5.30;99.90
19665;DHT22;9980;51.020;7.772;2024-03-08T08:42:37;5.40;99.90
19665;DHT22;9980;51.020;7.772;2024-03-08T08:45:06;5.50;99.90
19665;DHT22;9980;51.020;7.772;2024-03-08T08:47:43;5.60;99.90
19665;DHT22;9980;51.020;7.772;2024-03-08T08:50:12;5.80;99.90
19665;DHT22;9980;51.020;7.772;2024-03-08T08:52:40;5.90;99.90
19665;DHT22;9980;51.020;7.772;2024-03-08T08:55:07;6.00;99.90
19665;DHT22;9980;51.020;7.772;2024-03-08T08:57:35;6.10;99.90
19665;DHT22;9980;51.020;7.772;2024-03-08T09:00:03;6.20;99.90
19665;DHT22;9980;51.020;7.772;2024-03-08T09:02:41;6.30;99.90
19665;DHT22;9980;51.020;7.772;2024-03-08T09:05:09;6.50;99.90
19665;DHT22;9980;51.020;7.772;2024-03-08T09:07:36;6.60;99.90
19665;DHT22;9980;51.020;7.772;2024-03-08T09:10:04;6.70;99.90
19665;DHT22;9980;51.020;7.772;2024-03-08T09:12:34;6.80;99.90
19665;DHT22;9980;51.020;7.772;2024-03-08T09:15:01;6.90;99.90
19665;DHT22;9980;51.020;7.772;2024-03-08T09:17:28;7.00;99.90
19665;DHT22;9980;51.020;7.772;2024-03-08T09:19:55;7.10;99.90
19665;DHT22;9980;51.020;7.772;2024-03-08T09:22:24;7.20;99.90
19665;DHT22;9980;51.020;7.772;2024-03-08T09:24:51;7.30;99.90
19665;DHT22;9980;51.020;7.772;2024-03-08T09:27:18;7.40;99.90
19665;DHT22;9980;51.020;7.772;2024-03-08T09:29:46;7.50;99.90
19665;DHT22;9980;51.020;7.772;2024-03-08T09:32:13;7.60;99.90
19665;DHT22;9980;51.020;7.772;2024-03-08T09:34:39;7.70;99.90
19665;DHT22;9980;51.020;7.772;2024-03-08T09:37:06;7.80;99.90
19665;DHT22;9980;51.020;7.772;2024-03-08T09:39:35;7.90;99.90
19665;DHT22;9980;51.020;7.772;2024-03-08T09:42:02;8.00;99.90
19665;DHT22;9980;51.020;7.772;2024-03-08T09:44:30;8.10;99.90
19665;DHT22;9980;51.020;7.772;2024-03-08T09:46:58;8.20;99.90
19665;DHT22;9980;51.020;7.772;2024-03-08T09:49:26;8.30;99.90
19665;DHT22;9980;51.020;7.772;2024-03-08T09:51:53;8.40;99.90
19665;DHT22;9980;51.020;7.772;2024-03-08T09:54:20;8.50;99.90
19665;DHT22;9980;51.020;7.772;2024-03-08T09:56:51;8.60;99.90
19665;DHT22;9980;51.020;7.772;2024-03-08T09:59:19;8.70;99.90
19665;DHT22;9980;51.020;7.772;2024-03-08T10:01:52;8.70;99.90
19665;DHT22;9980;51.020;7.772;2024-03-08T10:04:19;8.90;99.90
19665;DHT22;9980;51.020;7.772;2024-03-08T10:06:47;9.00;99.90
19665;DHT22;9980;51.020;7.772;2024-03-08T10:09:15;9.00;99.90
19665;DHT22;9980;51.020;7.772;2024-03-08T10:11:43;9.10;99.90
19665;DHT22;9980;51.020;7.772;2024-03-08T10:14:10;9.20;99.90
19665;DHT22;9980;51.020;7.772;2024-03-08T10:16:38;9.30;99.90
19665;DHT22;9980;51.020;7.772;2024-03-08T10:19:06;9.40;99.90
19665;DHT22;9980;51.020;7.772;2024-03-08T10:21:33;9.50;99.90
19665;DHT22;9980;51.020;7.772;2024-03-08T10:24:02;9.50;99.90
19665;DHT22;9980;51.020;7.772;2024-03-08T10:26:30;9.60;99.90
19665;DHT22;9980;51.020;7.772;2024-03-08T10:28:57;9.70;99.90
19665;DHT22;9980;51.020;7.772;2024-03-08T10:31:25;9.80;99.90
19665;DHT22;9980;51.020;7.772;2024-03-08T10:33:52;9.90;99.90
19665;DHT22;9980;51.020;7.772;2024-03-08T10:36:19;10.00;99.90
19665;DHT22;9980;51.020;7.772;2024-03-08T10:38:46;10.00;99.80
19665;DHT22;9980;51.020;7.772;2024-03-08T10:41:16;10.10;99.50
19665;DHT22;9980;51.020;7.772;2024-03-08T10:47:00;10.30;98.80
19665;DHT22;9980;51.020;7.772;2024-03-08T10:49:38;10.30;98.70
19665;DHT22;9980;51.020;7.772;2024-03-08T10:52:10;10.40;98.90
19665;DHT22;9980;51.020;7.772;2024-03-08T10:54:39;10.50;98.80
19665;DHT22;9980;51.020;7.772;2024-03-08T10:57:13;10.50;98.70
19665;DHT22;9980;51.020;7.772;2024-03-08T10:59:41;10.60;98.60
19665;DHT22;9980;51.020;7.772;2024-03-08T11:02:13;10.70;98.60
19665;DHT22;9980;51.020;7.772;2024-03-08T11:04:46;10.70;98.40
19665;DHT22;9980;51.020;7.772;2024-03-08T11:07:16;10.80;98.20
19665;DHT22;9980;51.020;7.772;2024-03-08T11:09:49;10.90;98.30
19665;DHT22;9980;51.020;7.772;2024-03-08T11:12:29;10.90;97.90
19665;DHT22;9980;51.020;7.772;2024-03-08T11:15:11;11.00;97.80
19665;DHT22;9980;51.020;7.772;2024-03-08T11:17:44;11.10;97.80
19665;DHT22;9980;51.020;7.772;2024-03-08T11:20:14;11.20;98.10
19665;DHT22;9980;51.020;7.772;2024-03-08T11:22:52;11.30;97.70
19665;DHT22;9980;51.020;7.772;2024-03-08T11:25:40;11.30;97.50
19665;DHT22;9980;51.020;7.772;2024-03-08T11:28:17;11.40;97.70
19665;DHT22;9980;51.020;7.772;2024-03-08T11:33:34;11.60;96.60
19665;DHT22;9980;51.020;7.772;2024-03-08T11:36:12;11.70;96.70
19665;DHT22;9980;51.020;7.772;2024-03-08T11:38:43;11.70;96.70
19665;DHT22;9980;51.020;7.772;2024-03-08T11:41:11;11.80;96.70
19665;DHT22;9980;51.020;7.772;2024-03-08T11:43:48;11.90;96.60
19665;DHT22;9980;51.020;7.772;2024-03-08T11:46:17;11.90;96.30
19665;DHT22;9980;51.020;7.772;2024-03-08T11:48:47;12.00;96.20
19665;DHT22;9980;51.020;7.772;2024-03-08T11:51:15;12.00;95.60
19665;DHT22;9980;51.020;7.772;2024-03-08T11:53:45;12.10;96.10
19665;DHT22;9980;51.020;7.772;2024-03-08T11:56:14;12.20;95.70
19665;DHT22;9980;51.020;7.772;2024-03-08T11:58:47;12.20;95.00
19665;DHT22;9980;51.020;7.772;2024-03-08T12:01:20;12.30;95.50
19665;DHT22;9980;51.020;7.772;2024-03-08T12:03:53;12.30;95.60
19665;DHT22;9980;51.020;7.772;2024-03-08T12:06:21;12.40;95.00
19665;DHT22;9980;51.020;7.772;2024-03-08T12:08:48;12.40;95.40
19665;DHT22;9980;51.020;7.772;2024-03-08T12:11:18;12.50;95.60
19665;DHT22;9980;51.020;7.772;2024-03-08T12:13:49;12.50;95.40
19665;DHT22;9980;51.020;7.772;2024-03-08T12:16:19;12.60;94.90
19665;DHT22;9980;51.020;7.772;2024-03-08T12:18:48;12.60;95.00
19665;DHT22;9980;51.020;7.772;2024-03-08T12:21:15;12.60;94.40
19665;DHT22;9980;51.020;7.772;2024-03-08T12:23:46;12.70;94.50
19665;DHT22;9980;51.020;7.772;2024-03-08T12:26:24;12.70;94.60
19665;DHT22;9980;51.020;7.772;2024-03-08T12:28:52;12.80;94.30
19665;DHT22;9980;51.020;7.772;2024-03-08T12:31:21;12.80;94.20
19665;DHT22;9980;51.020;7.772;2024-03-08T12:33:55;12.80;94.30
19665;DHT22;9980;51.020;7.772;2024-03-08T12:36:25;12.80;94.00
19665;DHT22;9980;51.020;7.772;2024-03-08T12:38:53;12.90;94.20
19665;DHT22;9980;51.020;7.772;2024-03-08T12:41:23;12.90;94.30
19665;DHT22;9980;51.020;7.772;2024-03-08T12:43:50;12.90;94.20
19665;DHT22;9980;51.020;7.772;2024-03-08T12:46:19;13.00;94.30
19665;DHT22;9980;51.020;7.772;2024-03-08T12:48:48;13.00;94.40
19665;DHT22;9980;51.020;7.772;2024-03-08T12:51:16;13.10;94.30
19665;DHT22;9980;51.020;7.772;2024-03-08T12:53:47;13.10;93.90
19665;DHT22;9980;51.020;7.772;2024-03-08T12:56:27;13.10;93.90
19665;DHT22;9980;51.020;7.772;2024-03-08T12:58:56;13.20;93.90
19665;DHT22;9980;51.020;7.772;2024-03-08T13:01:24;13.20;93.90
19665;DHT22;9980;51.020;7.772;2024-03-08T13:03:51;13.20;93.60
19665;DHT22;9980;51.020;7.772;2024-03-08T13:06:18;13.30;93.70
19665;DHT22;9980;51.020;7.772;2024-03-08T13:08:48;13.30;93.70
19665;DHT22;9980;51.020;7.772;2024-03-08T13:11:15;13.30;94.10
19665;DHT22;9980;51.020;7.772;2024-03-08T13:13:42;13.30;93.40
19665;DHT22;9980;51.020;7.772;2024-03-08T13:16:11;13.40;93.20
19665;DHT22;9980;51.020;7.772;2024-03-08T13:18:41;13.40;93.10
19665;DHT22;9980;51.020;7.772;2024-03-08T13:21:09;13.40;93.40
19665;DHT22;9980;51.020;7.772;2024-03-08T13:23:38;13.40;93.20
19665;DHT22;9980;51.020;7.772;2024-03-08T13:26:11;13.40;93.20
19665;DHT22;9980;51.020;7.772;2024-03-08T13:28:43;13.40;92.90
19665;DHT22;9980;51.020;7.772;2024-03-08T13:31:13;13.40;93.40
19665;DHT22;9980;51.020;7.772;2024-03-08T13:33:41;13.50;93.20
19665;DHT22;9980;51.020;7.772;2024-03-08T13:36:09;13.50;93.10
19665;DHT22;9980;51.020;7.772;2024-03-08T13:38:46;13.50;92.90
19665;DHT22;9980;51.020;7.772;2024-03-08T13:41:15;13.50;92.70
19665;DHT22;9980;51.020;7.772;2024-03-08T13:43:46;13.50;92.80
19665;DHT22;9980;51.020;7.772;2024-03-08T13:46:17;13.50;92.60
19665;DHT22;9980;51.020;7.772;2024-03-08T13:48:44;13.50;92.90
19665;DHT22;9980;51.020;7.772;2024-03-08T13:51:11;13.60;92.70
19665;DHT22;9980;51.020;7.772;2024-03-08T13:53:41;13.60;92.50
19665;DHT22;9980;51.020;7.772;2024-03-08T13:56:08;13.60;92.50
19665;DHT22;9980;51.020;7.772;2024-03-08T13:58:38;13.60;92.30
19665;DHT22;9980;51.020;7.772;2024-03-08T14:01:07;13.60;92.30
19665;DHT22;9980;51.020;7.772;2024-03-08T14:03:38;13.60;92.30
19665;DHT22;9980;51.020;7.772;2024-03-08T14:06:08;13.60;91.90
19665;DHT22;9980;51.020;7.772;2024-03-08T14:08:36;13.60;92.20
19665;DHT22;9980;51.020;7.772;2024-03-08T14:11:04;13.50;92.00
19665;DHT22;9980;51.020;7.772;2024-03-08T14:13:43;13.50;91.90
19665;DHT22;9980;51.020;7.772;2024-03-08T14:16:12;13.50;91.80
19665;DHT22;9980;51.020;7.772;2024-03-08T14:18:40;13.50;92.00
19665;DHT22;9980;51.020;7.772;2024-03-08T14:21:07;13.50;91.80
19665;DHT22;9980;51.020;7.772;2024-03-08T14:23:35;13.50;91.80
19665;DHT22;9980;51.020;7.772;2024-03-08T14:26:03;13.50;92.20
19665;DHT22;9980;51.020;7.772;2024-03-08T14:28:33;13.50;91.40
19665;DHT22;9980;51.020;7.772;2024-03-08T14:31:01;13.50;91.30
19665;DHT22;9980;51.020;7.772;2024-03-08T14:33:33;13.50;91.40
19665;DHT22;9980;51.020;7.772;2024-03-08T14:36:00;13.50;91.50
19665;DHT22;9980;51.020;7.772;2024-03-08T14:38:28;13.50;91.50
19665;DHT22;9980;51.020;7.772;2024-03-08T14:40:55;13.50;91.80
19665;DHT22;9980;51.020;7.772;2024-03-08T14:43:22;13.50;91.70
19665;DHT22;9980;51.020;7.772;2024-03-08T14:45:49;13.50;91.60
19665;DHT22;9980;51.020;7.772;2024-03-08T14:48:17;13.50;91.30
19665;DHT22;9980;51.020;7.772;2024-03-08T14:50:45;13.50;91.30
19665;DHT22;9980;51.020;7.772;2024-03-08T14:53:14;13.40;91.30
19665;DHT22;9980;51.020;7.772;2024-03-08T14:55:43;13.50;91.70
19665;DHT22;9980;51.020;7.772;2024-03-08T14:58:14;13.40;91.30
19665;DHT22;9980;51.020;7.772;2024-03-08T15:00:42;13.40;91.00
19665;DHT22;9980;51.020;7.772;2024-03-08T15:03:10;13.40;91.00
19665;DHT22;9980;51.020;7.772;2024-03-08T15:05:40;13.40;90.90
19665;DHT22;9980;51.020;7.772;2024-03-08T15:08:13;13.30;91.30
19665;DHT22;9980;51.020;7.772;2024-03-08T15:10:47;13.30;91.10
19665;DHT22;9980;51.020;7.772;2024-03-08T15:13:21;13.30;91.10
19665;DHT22;9980;51.020;7.772;2024-03-08T15:15:50;13.30;91.10
19665;DHT22;9980;51.020;7.772;2024-03-08T15:18:24;13.30;91.10
19665;DHT22;9980;51.020;7.772;2024-03-08T15:20:52;13.30;91.10
19665;DHT22;9980;51.020;7.772;2024-03-08T15:23:20;13.20;91.10
19665;DHT22;9980;51.020;7.772;2024-03-08T15:25:48;13.20;90.90
19665;DHT22;9980;51.020;7.772;2024-03-08T15:28:18;13.20;90.70
19665;DHT22;9980;51.020;7.772;2024-03-08T15:30:47;13.20;91.10
19665;DHT22;9980;51.020;7.772;2024-03-08T15:33:20;13.20;91.00
19665;DHT22;9980;51.020;7.772;2024-03-08T15:35:52;13.10;91.00
19665;DHT22;9980;51.020;7.772;2024-03-08T15:38:25;13.10;91.20
19665;DHT22;9980;51.020;7.772;2024-03-08T15:40:56;13.10;91.00
19665;DHT22;9980;51.020;7.772;2024-03-08T15:43:23;13.10;91.00
19665;DHT22;9980;51.020;7.772;2024-03-08T15:45:52;13.00;91.00
19665;DHT22;9980;51.020;7.772;2024-03-08T15:48:19;13.00;90.70
19665;DHT22;9980;51.020;7.772;2024-03-08T15:50:45;12.90;91.10
19665;DHT22;9980;51.020;7.772;2024-03-08T15:53:13;12.90;90.90
19665;DHT22;9980;51.020;7.772;2024-03-08T15:55:41;12.90;91.10
19665;DHT22;9980;51.020;7.772;2024-03-08T15:58:10;12.80;91.00
19665;DHT22;9980;51.020;7.772;2024-03-08T16:00:40;12.80;90.80
19665;DHT22;9980;51.020;7.772;2024-03-08T16:03:14;12.80;91.00
19665;DHT22;9980;51.020;7.772;2024-03-08T16:05:42;12.70;90.70
19665;DHT22;9980;51.020;7.772;2024-03-08T16:08:11;12.70;90.90
19665;DHT22;9980;51.020;7.772;2024-03-08T16:10:44;12.70;91.00
19665;DHT22;9980;51.020;7.772;2024-03-08T16:13:17;12.60;90.70